Time;durP1;ratioP1;P1;durP2;ratioP2;P2;SDS_P1;SDS_P2;PMS_P1;PMS_P2;Temp;Humidity;BMP_temperature;BMP_pressure;BME280_temperature;BME280_humidity;BME280_pressure;Samples;Min_cycle;Max_cycle;Signal;HPM_P1;HPM_P2
2022/06/08 00:00:13;;;;;;;3.80;3.37;;;10.50;99.90;;;;;;6213195;23;20259;-92
2022/06/08 00:02:41;;;;;;;5.10;2.40;;;10.50;99.90;;;;;;6213366;23;20197;-91
2022/06/08 00:05:08;;;;;;;3.00;2.40;;;10.50;99.90;;;;;;6187891;23;20204;-91
2022/06/08 00:07:34;;;;;;;4.03;2.97;;;10.50;99.90;;;;;;6188929;23;20161;-91
2022/06/08 00:09:59;;;;;;;4.97;3.87;;;10.40;99.90;;;;;;6188495;23;20503;-90
2022/06/08 00:12:25;;;;;;;7.07;2.73;;;10.40;99.90;;;;;;6163058;23;20208;-91
2022/06/08 00:14:51;;;;;;;5.37;3.17;;;10.40;99.90;;;;;;6188744;23;20213;-92
2022/06/08 00:17:18;;;;;;;4.13;2.70;;;10.50;99.90;;;;;;6162939;23;20929;-91
2022/06/08 00:19:44;;;;;;;5.33;3.17;;;10.50;99.90;;;;;;6189228;23;20168;-91
2022/06/08 00:22:10;;;;;;;6.87;3.40;;;10.70;99.90;;;;;;6188495;23;20526;-91
2022/06/08 00:24:35;;;;;;;4.30;3.67;;;10.90;99.90;;;;;;6163729;23;20193;-90
2022/06/08 00:27:01;;;;;;;8.07;3.97;;;11.00;99.90;;;;;;6188518;23;20200;-91
2022/06/08 00:29:27;;;;;;;6.83;3.63;;;11.10;99.90;;;;;;6188186;23;20217;-91
2022/06/08 00:31:53;;;;;;;6.43;3.70;;;11.10;99.90;;;;;;6188703;23;20157;-90
2022/06/08 00:34:19;;;;;;;3.87;3.53;;;11.10;99.90;;;;;;6187780;23;20201;-91
2022/06/08 00:36:45;;;;;;;3.80;2.43;;;11.10;99.90;;;;;;6163381;23;20218;-91
2022/06/08 00:39:10;;;;;;;9.53;4.60;;;11.10;99.90;;;;;;6163722;23;20201;-91
2022/06/08 00:41:44;;;;;;;4.13;3.10;;;11.00;99.90;;;;;;6163697;23;20197;-91
2022/06/08 00:44:20;;;;;;;7.10;4.00;;;11.00;99.90;;;;;;6213292;23;20199;-91
2022/06/08 00:46:46;;;;;;;5.70;3.70;;;11.00;99.90;;;;;;6214270;23;20776;-92
2022/06/08 00:49:32;;;;;;;3.87;3.53;;;11.10;99.90;;;;;;6188044;23;20247;-91
2022/06/08 00:52:00;;;;;;;4.43;3.80;;;11.00;99.90;;;;;;6213067;23;20197;-91
2022/06/08 00:54:31;;;;;;;6.67;4.70;;;11.00;99.90;;;;;;6215066;23;20213;-92
2022/06/08 00:57:01;;;;;;;9.90;4.83;;;11.00;99.90;;;;;;6214974;23;20274;-92
2022/06/08 00:59:28;;;;;;;10.27;3.40;;;11.00;99.90;;;;;;6215029;23;20201;-91
2022/06/08 01:01:54;;;;;;;12.00;3.90;;;10.90;99.90;;;;;;6166176;23;20158;-91
2022/06/08 01:04:20;;;;;;;7.07;4.37;;;10.80;99.90;;;;;;6214754;23;20225;-91
2022/06/08 01:06:52;;;;;;;3.40;3.00;;;10.80;99.90;;;;;;6215052;23;20239;-91
2022/06/08 01:09:29;;;;;;;3.90;3.23;;;10.80;99.90;;;;;;6214745;23;20259;-91
2022/06/08 01:11:59;;;;;;;4.27;2.90;;;10.70;99.90;;;;;;6215312;23;20196;-91
2022/06/08 01:14:26;;;;;;;3.40;3.07;;;10.70;99.90;;;;;;6241048;23;20209;-91
2022/06/08 01:17:14;;;;;;;4.70;3.27;;;10.70;99.90;;;;;;6215969;23;20590;-91
2022/06/08 01:19:44;;;;;;;7.07;3.83;;;10.60;99.90;;;;;;6215229;23;20169;-91
2022/06/08 01:22:16;;;;;;;9.87;3.37;;;10.60;99.90;;;;;;6215083;23;20212;-91
2022/06/08 01:24:45;;;;;;;4.27;3.23;;;10.50;99.90;;;;;;6214829;23;20197;-92
2022/06/08 01:27:10;;;;;;;4.17;3.20;;;10.60;99.90;;;;;;6215043;23;20824;-91
2022/06/08 01:29:58;;;;;;;6.70;4.60;;;10.60;99.90;;;;;;6214733;23;20272;-91
2022/06/08 01:32:59;;;;;;;4.13;3.70;;;10.50;99.90;;;;;;6214530;23;20208;-91
2022/06/08 01:35:44;;;;;;;5.33;2.73;;;10.50;99.90;;;;;;6214677;23;20266;-90
2022/06/08 01:38:38;;;;;;;6.07;3.30;;;10.50;99.90;;;;;;6214785;23;20502;-91
2022/06/08 01:41:11;;;;;;;3.30;2.93;;;10.60;99.90;;;;;;6214508;23;20148;-91
2022/06/08 01:44:11;;;;;;;7.43;4.50;;;10.60;99.90;;;;;;6215248;23;20152;-91
2022/06/08 01:47:03;;;;;;;8.07;5.17;;;10.60;99.90;;;;;;6215322;23;20170;-91
2022/06/08 01:49:55;;;;;;;10.03;3.97;;;10.50;99.90;;;;;;6185016;23;20205;-91
2022/06/08 01:52:38;;;;;;;8.60;3.63;;;10.50;99.90;;;;;;6184466;23;20197;-90
2022/06/08 01:55:56;;;;;;;4.70;2.93;;;10.60;99.90;;;;;;6184576;23;20201;-91
2022/06/08 01:58:48;;;;;;;3.67;3.07;;;10.80;99.90;;;;;;6119131;23;20219;-91
2022/06/08 02:01:47;;;;;;;7.03;5.00;;;10.90;99.90;;;;;;6207684;23;20209;-91
2022/06/08 02:04:25;;;;;;;6.67;4.40;;;11.10;99.90;;;;;;6212785;23;20213;-91
2022/06/08 02:07:12;;;;;;;9.97;5.43;;;11.20;99.90;;;;;;6208963;23;20317;-91
2022/06/08 02:09:54;;;;;;;6.37;4.77;;;11.30;99.90;;;;;;6209373;23;20202;-92
2022/06/08 02:12:20;;;;;;;8.30;6.27;;;11.40;99.90;;;;;;6209465;23;20225;-92
2022/06/08 02:15:04;;;;;;;4.47;4.07;;;11.50;99.90;;;;;;6159541;23;20210;-91
2022/06/08 02:17:50;;;;;;;7.63;4.97;;;11.50;99.90;;;;;;6209249;23;20201;-92
2022/06/08 02:20:23;;;;;;;6.47;4.27;;;11.60;99.90;;;;;;6209543;23;20217;-91
2022/06/08 02:23:03;;;;;;;5.83;4.47;;;11.70;99.90;;;;;;6210226;23;20229;-92
2022/06/08 02:25:48;;;;;;;9.23;5.63;;;11.70;99.90;;;;;;6209517;23;20196;-92
2022/06/08 02:28:32;;;;;;;10.87;4.80;;;11.80;99.90;;;;;;6208914;23;20220;-92
2022/06/08 02:31:16;;;;;;;8.73;5.97;;;11.80;99.90;;;;;;6209289;23;20205;-92
2022/06/08 02:36:42;;;;;;;8.50;5.87;;;11.90;99.90;;;;;;6210574;23;20193;-91
2022/06/08 02:39:28;;;;;;;6.97;4.57;;;11.90;99.90;;;;;;6209166;23;20201;-91
2022/06/08 02:41:58;;;;;;;9.80;4.40;;;11.90;99.90;;;;;;6208987;23;20198;-92
2022/06/08 02:44:29;;;;;;;9.70;4.87;;;11.80;99.90;;;;;;6209007;23;20708;-91
2022/06/08 02:47:07;;;;;;;5.83;4.67;;;11.80;99.90;;;;;;6209922;23;20181;-91
2022/06/08 02:49:35;;;;;;;10.67;5.13;;;11.80;99.90;;;;;;6209493;23;20205;-91
2022/06/08 02:52:20;;;;;;;6.73;4.00;;;11.90;99.90;;;;;;6184224;23;20189;-92
2022/06/08 02:54:46;;;;;;;5.13;4.43;;;11.90;99.90;;;;;;6209170;23;20206;-92
2022/06/08 02:57:28;;;;;;;5.63;4.23;;;11.90;99.90;;;;;;6159138;23;20716;-92
2022/06/08 03:00:17;;;;;;;9.00;6.20;;;11.80;99.90;;;;;;6209179;23;20240;-92
2022/06/08 03:02:48;;;;;;;8.20;4.57;;;11.80;99.90;;;;;;6208966;23;20197;-91
2022/06/08 03:05:21;;;;;;;7.77;5.40;;;11.70;99.90;;;;;;6213251;23;20243;-91
2022/06/08 03:07:56;;;;;;;8.83;5.37;;;11.70;99.90;;;;;;6214961;23;20150;-91
2022/06/08 03:10:24;;;;;;;11.33;6.10;;;11.70;99.90;;;;;;6183277;23;20190;-89
2022/06/08 03:13:11;;;;;;;7.87;5.70;;;11.80;99.90;;;;;;6183885;23;20265;-91
2022/06/08 03:15:40;;;;;;;12.33;4.93;;;11.70;99.90;;;;;;6183495;23;20654;-91
2022/06/08 03:18:06;;;;;;;7.83;4.57;;;11.80;99.90;;;;;;6183261;23;20205;-91
2022/06/08 03:20:32;;;;;;;8.20;4.97;;;11.80;99.90;;;;;;6166058;23;20197;-92
2022/06/08 03:22:58;;;;;;;9.67;5.50;;;11.80;99.90;;;;;;6212857;23;20157;-91
2022/06/08 03:25:24;;;;;;;9.67;5.37;;;11.80;99.90;;;;;;6183991;23;20162;-91
2022/06/08 03:27:50;;;;;;;11.13;6.57;;;11.90;99.90;;;;;;6164424;23;20575;-92
2022/06/08 03:30:17;;;;;;;8.40;4.73;;;11.90;99.90;;;;;;6158147;23;21028;-91
2022/06/08 03:32:43;;;;;;;8.83;5.80;;;11.90;99.90;;;;;;6154090;23;20202;-91
2022/06/08 03:35:09;;;;;;;8.40;6.33;;;11.90;99.90;;;;;;6158341;23;20668;-92
2022/06/08 03:37:35;;;;;;;9.43;5.17;;;12.00;99.90;;;;;;6158858;23;20189;-92
2022/06/08 03:40:03;;;;;;;17.10;5.87;;;12.00;99.90;;;;;;6179301;23;20197;-91
2022/06/08 03:42:29;;;;;;;4.63;3.77;;;12.10;99.90;;;;;;6183004;23;20205;-91
2022/06/08 03:44:55;;;;;;;7.40;4.93;;;12.10;99.90;;;;;;6158449;23;20198;-91
2022/06/08 03:47:28;;;;;;;10.20;5.57;;;12.10;99.90;;;;;;6207656;23;20193;-91
2022/06/08 03:49:57;;;;;;;7.40;4.53;;;12.10;99.90;;;;;;6183693;23;20149;-92
2022/06/08 03:52:28;;;;;;;8.53;5.00;;;12.10;99.90;;;;;;6208690;23;20551;-92
2022/06/08 03:54:59;;;;;;;16.10;5.90;;;12.00;99.90;;;;;;6208765;23;20661;-91
2022/06/08 03:57:25;;;;;;;7.60;5.73;;;12.10;99.90;;;;;;6194327;23;20280;-92
2022/06/08 03:59:51;;;;;;;7.83;4.27;;;12.20;99.90;;;;;;6165598;23;20224;-92
2022/06/08 04:02:18;;;;;;;6.43;5.03;;;12.20;99.90;;;;;;6183458;23;20194;-92
2022/06/08 04:04:45;;;;;;;8.33;5.13;;;12.30;99.90;;;;;;6158977;23;20169;-92
2022/06/08 04:07:11;;;;;;;11.63;5.43;;;12.30;99.90;;;;;;6183068;23;20248;-92
2022/06/08 04:09:37;;;;;;;7.73;5.17;;;12.30;99.90;;;;;;6182734;23;20197;-92
2022/06/08 04:12:04;;;;;;;9.57;5.40;;;12.40;99.90;;;;;;6157624;23;20233;-92
2022/06/08 04:14:29;;;;;;;9.30;5.77;;;12.40;99.90;;;;;;6184854;23;20206;-92
2022/06/08 04:16:58;;;;;;;10.17;5.13;;;12.50;99.90;;;;;;6184206;23;20224;-92
2022/06/08 04:19:24;;;;;;;8.17;6.00;;;12.50;99.90;;;;;;6212955;23;20193;-93
2022/06/08 04:21:50;;;;;;;9.80;5.73;;;12.50;99.90;;;;;;6164091;23;20250;-91
2022/06/08 04:24:18;;;;;;;9.03;5.73;;;12.60;99.90;;;;;;6188488;23;20273;-91
2022/06/08 04:26:44;;;;;;;7.33;5.03;;;12.60;99.90;;;;;;6213855;23;20193;-93
2022/06/08 04:29:10;;;;;;;9.77;5.67;;;12.70;99.90;;;;;;6190118;23;20163;-91
2022/06/08 04:31:36;;;;;;;9.37;5.43;;;12.70;99.90;;;;;;6166358;23;20978;-91
2022/06/08 04:34:05;;;;;;;7.80;5.70;;;12.80;99.90;;;;;;6215270;23;20231;-91
2022/06/08 04:36:31;;;;;;;10.00;4.93;;;12.80;99.90;;;;;;6215504;23;20230;-92
2022/06/08 04:38:58;;;;;;;11.50;6.90;;;12.90;99.90;;;;;;6217246;23;20197;-92
2022/06/08 04:41:24;;;;;;;7.00;4.80;;;12.90;99.90;;;;;;6166258;23;20197;-93
2022/06/08 04:43:50;;;;;;;8.47;5.80;;;13.00;99.90;;;;;;6216783;23;20157;-93
2022/06/08 04:46:17;;;;;;;16.60;6.30;;;13.00;99.90;;;;;;6165480;23;20197;-92
2022/06/08 04:48:44;;;;;;;11.33;6.23;;;13.10;99.90;;;;;;6215427;23;20197;-93
2022/06/08 04:51:12;;;;;;;12.47;6.00;;;13.10;99.90;;;;;;6193492;23;20428;-94
2022/06/08 04:53:39;;;;;;;8.60;5.40;;;13.20;99.90;;;;;;6198151;23;20793;-95
2022/06/08 04:56:05;;;;;;;10.83;6.10;;;13.30;99.90;;;;;;6216441;23;20150;-93
2022/06/08 04:58:32;;;;;;;9.03;5.37;;;13.40;99.90;;;;;;6224557;23;20153;-93
2022/06/08 05:00:57;;;;;;;11.00;6.57;;;13.50;99.90;;;;;;6220927;23;20197;-93
2022/06/08 05:03:24;;;;;;;12.23;6.60;;;13.60;99.90;;;;;;6220928;23;20193;-93
2022/06/08 05:05:50;;;;;;;12.73;5.83;;;13.70;99.90;;;;;;6198048;23;20213;-93
2022/06/08 05:08:18;;;;;;;7.90;6.03;;;13.80;99.90;;;;;;6221983;23;20233;-94
2022/06/08 05:10:45;;;;;;;12.63;7.37;;;13.90;99.90;;;;;;6200262;23;20158;-93
2022/06/08 05:13:12;;;;;;;15.13;7.67;;;14.00;99.90;;;;;;6224718;23;20689;-94
2022/06/08 05:15:41;;;;;;;12.87;7.17;;;14.20;99.90;;;;;;6224150;23;20212;-93
2022/06/08 05:18:11;;;;;;;13.17;9.00;;;14.40;99.90;;;;;;6226329;23;20235;-94
2022/06/08 05:20:42;;;;;;;17.03;7.47;;;14.70;99.90;;;;;;6225428;23;20258;-93
2022/06/08 05:23:13;;;;;;;12.73;7.53;;;15.00;99.90;;;;;;6223290;23;20284;-94
2022/06/08 05:25:41;;;;;;;14.93;8.37;;;15.30;99.90;;;;;;6225743;23;20582;-92
2022/06/08 05:28:13;;;;;;;12.00;6.93;;;15.80;99.90;;;;;;6223682;23;20201;-93
2022/06/08 05:30:44;;;;;;;11.13;7.17;;;16.20;99.90;;;;;;6198945;23;20201;-93
2022/06/08 05:33:11;;;;;;;13.40;6.57;;;16.00;99.90;;;;;;6224021;23;20197;-94
2022/06/08 05:35:39;;;;;;;12.20;7.60;;;15.70;99.90;;;;;;6199796;23;20598;-94
2022/06/08 05:38:07;;;;;;;9.23;6.63;;;15.50;99.90;;;;;;6205055;23;20173;-93
2022/06/08 05:40:37;;;;;;;29.87;6.87;;;15.50;99.90;;;;;;6222454;23;20146;-93
2022/06/08 05:43:13;;;;;;;10.87;7.20;;;15.40;99.90;;;;;;6221454;23;20442;-94
2022/06/08 05:45:47;;;;;;;11.40;6.73;;;15.50;99.90;;;;;;6223236;23;20251;-95
2022/06/08 05:48:14;;;;;;;15.60;6.93;;;15.50;99.90;;;;;;6222976;23;20208;-93
2022/06/08 05:50:41;;;;;;;13.70;7.43;;;15.60;99.90;;;;;;6217660;23;20216;-92
2022/06/08 05:53:08;;;;;;;9.27;6.23;;;16.00;99.90;;;;;;6189741;23;20162;-94
2022/06/08 05:55:35;;;;;;;10.80;7.10;;;16.00;99.90;;;;;;6190401;23;20182;-93
2022/06/08 05:58:00;;;;;;;11.17;6.87;;;15.90;99.90;;;;;;6217015;23;20276;-94
2022/06/08 06:00:30;;;;;;;13.83;6.50;;;15.80;99.90;;;;;;6190170;23;20685;-93
2022/06/08 06:02:57;;;;;;;12.47;7.03;;;15.80;99.90;;;;;;6220329;23;20243;-95
2022/06/08 06:05:29;;;;;;;9.53;5.77;;;15.80;99.90;;;;;;6201095;23;20228;-95
2022/06/08 06:07:56;;;;;;;8.93;6.10;;;15.80;99.90;;;;;;6195776;23;20170;-93
2022/06/08 06:10:24;;;;;;;13.57;6.87;;;15.90;99.90;;;;;;6224018;23;20177;-94
2022/06/08 06:12:56;;;;;;;11.60;7.27;;;15.90;99.90;;;;;;6222428;23;20676;-96
2022/06/08 06:15:25;;;;;;;9.20;5.60;;;16.00;99.90;;;;;;6236984;23;20213;-96
2022/06/08 06:17:52;;;;;;;13.93;6.27;;;16.00;99.90;;;;;;6237642;23;20220;-96
2022/06/08 06:27:21;;;;;;;11.83;6.57;;;16.20;99.90;;;;;;6151151;23;20231;-95
2022/06/08 06:29:48;;;;;;;11.87;7.10;;;16.30;99.90;;;;;;6227586;23;20251;-95
2022/06/08 06:32:23;;;;;;;9.77;6.10;;;16.40;99.90;;;;;;6227262;23;20161;-95
2022/06/08 06:34:49;;;;;;;9.70;6.20;;;16.60;99.90;;;;;;6227150;23;20226;-95
2022/06/08 06:37:14;;;;;;;9.80;5.70;;;16.70;99.90;;;;;;6196063;23;20213;-94
2022/06/08 06:39:41;;;;;;;11.37;6.33;;;16.80;99.90;;;;;;6224846;23;20196;-94
2022/06/08 06:42:16;;;;;;;10.30;5.47;;;16.90;99.90;;;;;;6196096;23;20213;-93
2022/06/08 06:44:43;;;;;;;9.73;5.40;;;17.00;99.90;;;;;;6205083;23;20216;-95
2022/06/08 06:47:09;;;;;;;12.17;5.97;;;17.10;99.90;;;;;;6187743;23;20153;-91
2022/06/08 06:49:34;;;;;;;13.53;5.87;;;17.30;99.90;;;;;;6223135;23;20482;-95
2022/06/08 06:52:00;;;;;;;9.03;5.87;;;17.40;99.90;;;;;;6219333;23;20198;-94
2022/06/08 06:54:26;;;;;;;9.10;5.67;;;17.40;99.90;;;;;;6198871;23;20207;-93
2022/06/08 06:56:53;;;;;;;10.03;5.37;;;17.50;99.90;;;;;;6224122;23;20193;-96
2022/06/08 06:59:19;;;;;;;8.33;4.73;;;17.80;99.90;;;;;;6220949;23;20185;-96
2022/06/08 07:01:46;;;;;;;8.03;4.63;;;17.90;99.90;;;;;;6222091;23;20624;-94
2022/06/08 07:04:11;;;;;;;8.00;5.37;;;17.90;99.90;;;;;;6170244;23;20288;-90
2022/06/08 07:06:37;;;;;;;8.27;5.07;;;18.10;99.90;;;;;;6194260;23;20213;-92
2022/06/08 07:09:03;;;;;;;8.50;4.87;;;18.10;99.90;;;;;;6196320;23;20204;-94
2022/06/08 07:11:32;;;;;;;11.83;6.27;;;18.00;99.90;;;;;;6216442;23;20197;-93
2022/06/08 07:14:00;;;;;;;9.87;4.93;;;18.10;99.90;;;;;;6219133;23;20154;-93
2022/06/08 07:16:26;;;;;;;8.03;5.33;;;18.00;99.90;;;;;;6196332;23;20834;-94
2022/06/08 07:18:52;;;;;;;11.70;6.03;;;18.00;99.90;;;;;;6193383;23;20193;-93
2022/06/08 07:21:18;;;;;;;9.70;5.97;;;18.00;99.90;;;;;;6220776;23;20638;-94
2022/06/08 07:23:45;;;;;;;9.70;5.57;;;18.00;99.90;;;;;;6193754;23;20701;-92
2022/06/08 07:26:11;;;;;;;6.97;5.97;;;18.00;99.90;;;;;;6219957;23;20605;-91
2022/06/08 07:28:38;;;;;;;11.10;5.27;;;18.20;99.90;;;;;;6223482;23;20153;-92
2022/06/08 07:31:05;;;;;;;8.47;5.90;;;18.40;99.90;;;;;;6200276;23;20197;-93
2022/06/08 07:33:35;;;;;;;11.67;6.17;;;18.60;99.90;;;;;;6200861;23;20208;-92
2022/06/08 07:36:03;;;;;;;8.30;5.77;;;18.30;99.90;;;;;;6199817;23;20235;-93
2022/06/08 07:38:32;;;;;;;10.33;5.80;;;18.30;99.90;;;;;;6221762;23;20205;-93
2022/06/08 07:40:58;;;;;;;8.63;5.60;;;18.80;99.90;;;;;;6222926;23;20153;-92
2022/06/08 07:43:24;;;;;;;8.27;5.63;;;19.30;99.90;;;;;;6200202;23;20244;-94
2022/06/08 07:45:50;;;;;;;9.30;5.33;;;19.40;99.90;;;;;;6195939;23;20231;-92
2022/06/08 07:51:03;;;;;;;12.57;5.30;;;19.30;99.90;;;;;;6221348;23;20232;-91
2022/06/08 07:53:29;;;;;;;9.23;5.63;;;19.30;99.90;;;;;;6213382;23;20724;-90
2022/06/08 07:55:55;;;;;;;10.47;5.20;;;19.40;99.90;;;;;;6188996;23;20188;-93
2022/06/08 07:58:21;;;;;;;10.47;5.70;;;19.50;99.90;;;;;;6242161;23;20516;-92
2022/06/08 08:00:47;;;;;;;10.67;5.20;;;19.70;99.90;;;;;;6190101;23;20197;-92
2022/06/08 08:03:14;;;;;;;7.40;5.30;;;19.80;99.90;;;;;;6165712;23;20479;-93
2022/06/08 08:05:41;;;;;;;7.10;5.20;;;20.20;99.90;;;;;;6216334;23;20670;-94
2022/06/08 08:08:07;;;;;;;7.53;5.03;;;20.80;99.90;;;;;;6218093;23;20165;-94
2022/06/08 08:10:33;;;;;;;8.27;5.30;;;20.30;99.90;;;;;;6167011;23;20172;-91
2022/06/08 08:12:59;;;;;;;7.13;5.43;;;20.00;99.90;;;;;;6164722;23;20197;-93
2022/06/08 08:15:26;;;;;;;13.03;5.67;;;19.80;99.90;;;;;;6190344;23;20293;-93
2022/06/08 08:17:52;;;;;;;8.73;4.90;;;19.90;99.90;;;;;;6191210;23;20215;-92
2022/06/08 08:20:19;;;;;;;8.30;4.53;;;20.00;99.90;;;;;;6219423;23;20647;-91
2022/06/08 08:22:48;;;;;;;6.63;4.37;;;19.90;99.90;;;;;;6191230;23;20162;-94
2022/06/08 08:25:15;;;;;;;7.70;4.30;;;19.80;99.90;;;;;;6216327;23;20625;-93
2022/06/08 08:27:42;;;;;;;6.47;3.10;;;20.40;99.90;;;;;;6189318;23;20197;-93
2022/06/08 08:30:10;;;;;;;9.80;3.30;;;20.70;99.90;;;;;;6167057;23;20268;-91
2022/06/08 08:32:36;;;;;;;4.57;3.37;;;20.50;99.90;;;;;;6214467;23;20189;-91
2022/06/08 08:35:03;;;;;;;5.47;2.77;;;20.20;99.90;;;;;;6214355;23;20177;-91
2022/06/08 08:37:30;;;;;;;4.83;3.60;;;20.30;99.90;;;;;;6214749;23;20590;-90
2022/06/08 08:39:56;;;;;;;3.10;2.80;;;20.90;99.90;;;;;;6215765;23;20229;-92
2022/06/08 08:42:22;;;;;;;7.40;3.00;;;21.20;99.90;;;;;;6167798;23;20197;-92
2022/06/08 08:44:57;;;;;;;2.57;2.37;;;21.50;99.90;;;;;;6188999;23;20201;-90
2022/06/08 08:47:35;;;;;;;5.57;2.77;;;21.30;99.90;;;;;;6240779;23;20200;-91
2022/06/08 08:50:18;;;;;;;2.50;2.20;;;20.80;99.90;;;;;;6214773;23;20575;-90
2022/06/08 08:52:51;;;;;;;3.63;2.10;;;20.70;99.90;;;;;;6215126;23;20199;-91
2022/06/08 08:55:41;;;;;;;2.53;2.17;;;20.80;99.90;;;;;;6214085;23;20301;-93
2022/06/08 08:58:07;;;;;;;4.17;2.33;;;20.70;99.90;;;;;;6214242;23;20205;-90
2022/06/08 09:00:52;;;;;;;2.63;1.90;;;20.90;99.90;;;;;;6214183;23;20966;-91
2022/06/08 09:03:40;;;;;;;4.33;2.80;;;20.80;99.90;;;;;;6214766;23;20707;-91
2022/06/08 09:06:16;;;;;;;3.60;2.20;;;20.70;99.90;;;;;;6215843;23;20233;-93
2022/06/08 09:08:45;;;;;;;3.40;2.23;;;20.90;99.90;;;;;;6220426;23;20215;-93
2022/06/08 09:11:18;;;;;;;3.53;2.43;;;21.10;99.90;;;;;;6221209;23;20157;-92
2022/06/08 09:13:57;;;;;;;4.17;2.23;;;21.20;99.90;;;;;;6216830;23;20146;-93
2022/06/08 09:16:37;;;;;;;2.90;2.20;;;21.20;99.90;;;;;;6220664;23;20681;-94
2022/06/08 09:19:21;;;;;;;4.70;2.70;;;21.60;99.90;;;;;;6222333;23;20196;-94
2022/06/08 09:21:49;;;;;;;5.03;3.10;;;21.80;99.90;;;;;;6218061;23;20204;-94
2022/06/08 09:24:26;;;;;;;2.77;2.13;;;22.30;99.90;;;;;;6218438;23;20284;-94
2022/06/08 09:26:57;;;;;;;2.87;1.90;;;22.60;99.90;;;;;;6218396;23;20246;-95
2022/06/08 09:29:29;;;;;;;3.67;2.40;;;22.50;99.90;;;;;;6193212;23;20229;-94
2022/06/08 09:31:55;;;;;;;2.47;2.17;;;22.30;99.90;;;;;;6217722;23;20149;-93
2022/06/08 09:34:32;;;;;;;5.13;2.33;;;22.20;99.90;;;;;;6193064;23;20689;-95
2022/06/08 09:37:24;;;;;;;4.97;2.40;;;22.30;99.90;;;;;;6219241;23;20192;-93
2022/06/08 09:39:53;;;;;;;2.30;1.80;;;22.10;99.90;;;;;;6220995;23;20227;-96
2022/06/08 09:42:40;;;;;;;2.80;1.65;;;22.00;99.90;;;;;;6197487;23;20204;-96
2022/06/08 09:45:57;;;;;;;5.25;2.58;;;22.30;99.90;;;;;;6223422;23;20189;-96
2022/06/08 09:51:53;;;;;;;3.15;2.20;;;23.50;99.90;;;;;;6250354;23;20193;-94
2022/06/08 09:58:37;;;;;;;3.55;1.92;;;23.80;99.90;;;;;;6097366;23;20287;-95
2022/06/08 10:01:23;;;;;;;2.40;2.20;;;24.10;99.90;;;;;;6216662;23;20278;-93
2022/06/08 10:04:20;;;;;;;4.93;2.85;;;23.90;99.90;;;;;;6217079;23;20193;-93
2022/06/08 10:07:07;;;;;;;3.38;2.20;;;24.70;99.90;;;;;;6219692;23;20240;-93
2022/06/08 10:09:55;;;;;;;5.53;2.50;;;26.00;99.90;;;;;;6217798;23;20197;-93
2022/06/08 10:12:29;;;;;;;5.72;2.55;;;26.80;99.90;;;;;;6216638;23;20197;-94
2022/06/08 10:15:04;;;;;;;3.10;2.78;;;27.00;99.90;;;;;;6217153;23;20657;-93
2022/06/08 10:17:41;;;;;;;2.22;2.03;;;26.20;99.90;;;;;;6219173;23;20270;-94
2022/06/08 10:20:07;;;;;;;3.55;1.90;;;25.90;99.90;;;;;;6216068;23;20175;-92
2022/06/08 10:22:37;;;;;;;3.38;2.03;;;26.30;99.90;;;;;;6218763;23;20188;-93
2022/06/08 10:25:24;;;;;;;2.08;1.80;;;26.40;99.90;;;;;;6217047;23;20221;-91
2022/06/08 10:27:57;;;;;;;3.17;1.95;;;26.00;99.90;;;;;;6215306;23;20193;-89
2022/06/08 10:30:32;;;;;;;2.40;1.60;;;25.40;99.90;;;;;;6215444;23;20193;-92
2022/06/08 10:33:26;;;;;;;2.83;1.92;;;24.80;99.90;;;;;;6216048;23;20626;-95
2022/06/08 10:36:49;;;;;;;;;;;;;;;;;;;;;
2022/06/08 10:39:47;;;;;;;4.07;2.35;;;23.90;99.90;;;;;;6199090;23;20228;-95
2022/06/08 10:42:50;;;;;;;4.25;2.20;;;22.90;99.90;;;;;;6132093;23;20600;-91
2022/06/08 10:45:26;;;;;;;9.15;2.60;;;22.40;99.90;;;;;;6121778;23;20203;-91
2022/06/08 10:48:22;;;;;;;3.78;2.58;;;22.70;99.90;;;;;;6146875;23;20199;-93
2022/06/08 10:51:22;;;;;;;2.67;2.47;;;23.00;99.90;;;;;;6147951;23;20278;-91
2022/06/08 10:56:35;;;;;;;3.85;2.75;;;22.80;99.90;;;;;;6147960;23;20198;-93
2022/06/08 10:59:07;;;;;;;4.40;3.25;;;22.70;99.90;;;;;;6145982;23;20162;-94
2022/06/08 11:01:52;;;;;;;3.20;2.25;;;22.40;99.90;;;;;;6149466;23;20446;-94
2022/06/08 11:04:27;;;;;;;2.90;2.60;;;22.10;99.90;;;;;;6146476;23;20199;-89
2022/06/08 11:07:04;;;;;;;4.00;2.85;;;22.10;99.90;;;;;;6146232;23;20199;-93
2022/06/08 11:09:33;;;;;;;4.93;2.90;;;22.40;99.90;;;;;;6147482;23;20191;-91
2022/06/08 11:12:04;;;;;;;6.30;2.88;;;22.90;99.90;;;;;;6147175;23;20195;-91
2022/06/08 11:14:51;;;;;;;5.30;2.50;;;23.20;99.90;;;;;;6146292;23;20520;-90
2022/06/08 11:17:45;;;;;;;5.22;3.38;;;23.20;99.90;;;;;;6122433;23;20202;-92
2022/06/08 11:20:27;;;;;;;6.88;3.53;;;23.30;99.90;;;;;;6146864;23;20204;-92
2022/06/08 11:23:02;;;;;;;4.10;3.30;;;23.10;99.90;;;;;;6146987;23;20167;-91
2022/06/08 11:25:33;;;;;;;6.32;3.22;;;22.70;99.90;;;;;;6117220;23;20180;-92
2022/06/08 11:28:33;;;;;;;3.45;3.03;;;21.50;99.90;;;;;;6117694;23;20192;-95
2022/06/08 11:31:05;;;;;;;8.68;4.13;;;20.70;99.90;;;;;;6116642;23;20662;-91
2022/06/08 11:33:57;;;;;;;5.40;3.43;;;20.50;99.90;;;;;;6118755;23;20192;-90
2022/06/08 11:36:32;;;;;;;5.10;3.50;;;20.60;99.90;;;;;;6117196;23;20254;-93
2022/06/08 11:39:01;;;;;;;4.97;3.60;;;20.30;99.90;;;;;;6119507;23;20207;-90
2022/06/08 11:41:41;;;;;;;4.00;3.13;;;20.20;99.90;;;;;;6117062;23;20244;-92
2022/06/08 11:44:17;;;;;;;6.47;4.33;;;20.20;99.90;;;;;;6118082;23;20152;-91
2022/06/08 11:46:48;;;;;;;5.70;4.10;;;20.00;99.90;;;;;;6120445;23;20156;-91
2022/06/08 11:49:40;;;;;;;5.20;3.47;;;19.80;99.90;;;;;;6118299;23;20196;-91
2022/06/08 11:52:26;;;;;;;6.40;4.10;;;19.40;99.90;;;;;;6117357;23;20191;-93
2022/06/08 11:55:00;;;;;;;4.73;4.07;;;19.20;99.90;;;;;;6116444;23;20207;-92
2022/06/08 11:57:26;;;;;;;7.23;4.17;;;19.20;99.90;;;;;;6116780;23;20195;-92
2022/06/08 11:59:56;;;;;;;6.03;4.23;;;19.20;99.90;;;;;;6092698;23;20282;-90
2022/06/08 12:02:34;;;;;;;5.83;4.43;;;19.50;99.90;;;;;;6117208;23;20237;-92
2022/06/08 12:05:00;;;;;;;5.70;4.07;;;19.80;99.90;;;;;;6116904;23;20148;-91
2022/06/08 12:08:12;;;;;;;8.17;4.10;;;20.20;99.90;;;;;;6093136;23;20223;-93
2022/06/08 12:10:38;;;;;;;5.87;4.60;;;20.60;99.90;;;;;;6113598;23;20238;-91
2022/06/08 12:13:16;;;;;;;7.50;4.20;;;20.90;99.90;;;;;;6116603;23;20199;-94
2022/06/08 12:15:51;;;;;;;6.73;4.47;;;20.80;99.90;;;;;;6116425;23;20211;-91
2022/06/08 12:18:36;;;;;;;8.27;5.30;;;20.50;99.90;;;;;;6117008;23;20215;-91
2022/06/08 12:21:31;;;;;;;8.73;5.57;;;20.10;99.90;;;;;;6123906;23;20271;-93
2022/06/08 12:24:12;;;;;;;7.57;5.43;;;19.90;99.90;;;;;;6116551;23;20199;-93
2022/06/08 12:26:50;;;;;;;7.07;4.20;;;19.80;99.90;;;;;;6117700;23;20649;-94
2022/06/08 12:29:29;;;;;;;8.73;5.60;;;19.80;99.90;;;;;;6119975;23;20646;-93
2022/06/08 12:32:07;;;;;;;6.97;5.27;;;20.00;99.90;;;;;;6118561;23;20247;-95
2022/06/08 12:34:33;;;;;;;10.43;5.27;;;20.00;99.90;;;;;;6146688;23;20206;-93
2022/06/08 12:37:19;;;;;;;7.07;5.67;;;19.90;99.90;;;;;;6148370;23;20221;-94
2022/06/08 12:39:45;;;;;;;9.63;5.27;;;19.90;99.90;;;;;;6125832;23;20214;-94
2022/06/08 12:42:29;;;;;;;9.83;5.67;;;19.90;99.90;;;;;;6121810;23;20658;-94
2022/06/08 12:44:58;;;;;;;8.93;5.50;;;19.80;99.90;;;;;;6146758;23;20206;-94
2022/06/08 12:47:29;;;;;;;9.37;6.93;;;19.70;99.90;;;;;;6147589;23;20657;-94
2022/06/08 12:50:13;;;;;;;8.10;6.13;;;19.60;99.90;;;;;;6149153;23;20139;-94
2022/06/08 12:52:40;;;;;;;11.70;5.63;;;19.70;99.90;;;;;;6148366;23;20171;-93
2022/06/08 12:55:14;;;;;;;8.27;6.30;;;20.00;99.90;;;;;;6123803;23;20514;-93
2022/06/08 12:57:42;;;;;;;11.90;8.47;;;20.10;99.90;;;;;;6149995;23;20651;-94
2022/06/08 13:00:11;;;;;;;12.77;7.00;;;19.90;99.90;;;;;;6148424;23;20195;-92
2022/06/08 13:02:39;;;;;;;7.80;5.73;;;19.60;99.90;;;;;;6148508;23;20622;-93
2022/06/08 13:05:27;;;;;;;7.67;5.17;;;19.20;99.90;;;;;;6147701;23;20160;-92
2022/06/08 13:07:56;;;;;;;8.93;4.47;;;18.60;99.90;;;;;;6149240;23;20148;-94
2022/06/08 13:10:28;;;;;;;9.07;4.83;;;18.40;99.90;;;;;;6150968;23;20194;-95
2022/06/08 13:12:58;;;;;;;8.60;5.67;;;18.30;99.90;;;;;;6149463;23;20321;-95
2022/06/08 13:15:31;;;;;;;9.00;5.37;;;18.10;99.90;;;;;;6148660;23;20215;-96
2022/06/08 13:17:57;;;;;;;8.07;5.60;;;18.00;99.90;;;;;;6148781;23;20202;-94
2022/06/08 13:20:26;;;;;;;9.33;6.07;;;17.90;99.90;;;;;;6148828;23;20184;-92
2022/06/08 13:22:52;;;;;;;10.90;6.20;;;17.80;99.90;;;;;;6149763;23;20476;-95
2022/06/08 13:25:21;;;;;;;11.03;5.20;;;17.80;99.90;;;;;;6126161;23;20199;-95
2022/06/08 13:27:50;;;;;;;6.37;4.40;;;17.60;99.90;;;;;;6149490;23;20200;-95
2022/06/08 13:30:22;;;;;;;6.73;3.90;;;17.70;99.90;;;;;;6149944;23;20291;-95
2022/06/08 13:32:49;;;;;;;5.17;3.93;;;17.70;99.90;;;;;;6150997;23;20219;-95
2022/06/08 13:35:17;;;;;;;5.33;4.20;;;17.60;99.90;;;;;;6150103;23;20633;-91
2022/06/08 13:37:44;;;;;;;7.10;3.53;;;17.50;99.90;;;;;;6152363;23;20204;-93